• Join FlightAware (Why Join?)
  • Login
  • US Flag 
04:14AM EDT


 

Airport Tracker/Info


-or-


 

Live Flight TrackerFlight Track Log ✈ SKW6280 ✈ 29-Apr-2013 ✈ KDEN - KMLI

Flight Track Log - Related Links

Times and Time Zones

All times are in EDT time to prevent confusion due to time zone crossing. See the SKW6280 flight status page for this flight to view local times or setup timezone preferences in your user account.

Time Position Orientation Groundspeed Altitude Reporting Facility
EDT Latitude Longitude Course Direction KTS MPH feet Rate Location/Type
12:18PM 39.9747 -104.0235 77° East  Level Estimated
12:19PM 40.0023 -103.8607 77° East  Level Estimated
12:20PM 40.0298 -103.6978 78° East  Level Estimated
12:21PM 40.0570 -103.5348 78° East  Level Estimated
12:22PM 40.0840 -103.3716 78° East  Level Estimated
12:23PM 40.1108 -103.2084 78° East  Level Estimated
12:24PM 40.1373 -103.0450 78° East  Level Estimated
12:25PM 40.1636 -102.8814 78° East  Level Estimated
12:26PM 40.1897 -102.7178 78° East  Level Estimated
12:27PM 40.2156 -102.5540 78° East  Level Estimated
12:28PM 40.2412 -102.3901 78° East  Level Estimated
12:29PM 40.2666 -102.2260 78° East  Level Estimated
12:30PM 40.2917 -102.0619 79° East  Level Estimated
12:31PM 40.3166 -101.8976 79° East  Level Estimated
12:32PM 40.3413 -101.7332 79° East  Level Estimated
12:33PM 40.3658 -101.5686 79° East  Level Estimated
12:34PM 40.3900 -101.4040 79° East  Level Estimated
12:35PM 40.4140 -101.2393 79° East  Level Estimated
12:36PM 40.4377 -101.0744 79° East  Level Estimated
12:37PM 40.4613 -100.9094 79° East  Level Estimated
12:38PM 40.4845 -100.7443 79° East  Level Estimated
12:39PM 40.5076 -100.5791 80° East  Level Estimated
12:40PM 40.5304 -100.4137 80° East  Level Estimated
12:41PM 40.5530 -100.2483 80° East  Level Estimated
12:42PM 40.5753 -100.0827 80° East  Level Estimated
12:43PM 40.5974 -99.9171 80° East  Level Estimated
12:44PM 40.6193 -99.7513 80° East  Level Estimated
12:45PM 40.6409 -99.5854 80° East  Level Estimated
12:46PM 40.6623 -99.4194 80° East  Level Estimated
12:47PM 40.6835 -99.2533 80° East  Level Estimated
12:48PM 40.7044 -99.0871 81° East  Level Estimated
12:49PM 40.7251 -98.9208 81° East  Level Estimated
12:50PM 40.7455 -98.7544 81° East  Level Estimated
12:51PM 40.7657 -98.5879 81° East  Level Estimated
12:52PM 40.7857 -98.4213 81° East  Level Estimated
12:53PM 40.8054 -98.2546 81° East  Level Estimated
12:54PM 40.8249 -98.0878 81° East  Level Estimated
12:55PM 40.8441 -97.9209 81° East  Level Estimated
12:56PM 40.8631 -97.7539 81° East  Level Estimated
12:57PM 40.8819 -97.5868 82° East  Level Estimated
12:58PM 40.9004 -97.4196 82° East  Level Estimated
12:59PM 40.9187 -97.2523 82° East  Level Estimated
01:00PM 40.9367 -97.0849 82° East  Level Estimated
01:01PM 40.9545 -96.9174 82° East  Level Estimated
01:02PM 40.9720 -96.7499 82° East  Level Estimated
01:03PM 40.9894 -96.5823 82° East  Level Estimated
01:04PM 41.0064 -96.4145 82° East  Level Estimated
01:05PM 41.0233 -96.2467 82° East  Level Estimated
01:06PM 41.0398 -96.0788 82° East  Level Estimated
01:07PM 41.0562 -95.9108 83° East  Level Estimated
01:08PM 41.0723 -95.7427 83° East  Level Estimated
01:09PM 41.0881 -95.5746 83° East  Level Estimated
01:10PM 41.1037 -95.4064 83° East  Level Estimated
01:11PM 41.1191 -95.2381 83° East  Level Estimated
01:12PM 41.1342 -95.0697 83° East  Level Estimated
01:13PM 41.1490 -94.9012 83° East  Level Estimated
01:14PM 41.1637 -94.7327 83° East  Level Estimated
01:15PM 41.1780 -94.5640 83° East  Level Estimated
01:16PM 41.1922 -94.3953 84° East  Level Estimated
01:17PM 41.2060 -94.2266 84° East  Level Estimated
01:18PM 41.2197 -94.0577 84° East  Level Estimated
01:19PM 41.2331 -93.8888 84° East  Level Estimated
01:20PM 41.2462 -93.7199 84° East  Level Estimated
01:21PM 41.2591 -93.5508 84° East  Level Estimated
01:22PM 41.2718 -93.3817 84° East  Level Estimated
01:23PM 41.2842 -93.2126 84° East  Level Estimated
01:24PM 41.2963 -93.0433 84° East  Level Estimated
01:25PM 41.3082 -92.8740 85° East  Level Estimated
01:26PM 41.3199 -92.7047 85° East  Level Estimated
01:27PM 41.3313 -92.5352 85° East  Level Estimated
01:28PM 41.3424 -92.3658 85° East  Level Estimated
01:29PM 41.3534 -92.1962 85° East  Level Estimated
01:30PM 41.3640 -92.0266 85° East  Level Estimated
01:31PM 41.3744 -91.8570 85° East  Level Estimated
01:32PM 41.3846 -91.6873 85° East  Level Estimated
01:33PM 41.3945 -91.5176 85° East  Level Estimated
01:34PM 41.4042 -91.3478 86° East  Level Estimated
01:35PM 41.4136 -91.1779 86° East  Level Estimated
01:36PM 41.4227 -91.0080 86° East  Level Estimated
01:37PM 41.4317 -90.8381 86° East  Level Estimated
01:38PM 41.4403 -90.6681 86° East  Level Estimated
01:39PM 41.4483 -90.5075 86° East  Level Estimated
01:40PM 41.4483 -90.5075 181° South  Level Estimated
01:41PM 41.4483 -90.5075 181° South  Level Estimated
01:42PM 41.4483 -90.5075 181° South  Level Estimated
01:43PM 41.4483 -90.5075 181° South  Level Estimated
01:44PM 41.4483 -90.5075 181° South  Level Estimated
01:45PM 41.4483 -90.5075 181° South  Level Estimated
01:46PM 41.4483 -90.5075 181° South  Level Estimated
01:47PM 41.4483 -90.5075 181° South  Level Estimated
01:48PM 41.4483 -90.5075 181° South  Level Estimated
01:49PM 41.4483 -90.5075 181° South  Level Estimated
01:50PM 41.4483 -90.5075 181° South  Level Estimated
01:51PM 41.4483 -90.5075 181° South  Level Estimated